Time;durP1;ratioP1;P1;durP2;ratioP2;P2;SDS_P1;SDS_P2;PMS_P1;PMS_P2;Temp;Humidity;BMP_temperature;BMP_pressure;BME280_temperature;BME280_humidity;BME280_pressure;Samples;Min_cycle;Max_cycle;Signal;HPM_P1;HPM_P2
2021/06/29 00:01:10;;;;;;;14.90;6.53;;;17.70;99.90;;;;;;5092839;28;20381;-70
2021/06/29 00:03:36;;;;;;;14.38;6.65;;;17.70;99.90;;;;;;5092255;28;20089;-70
2021/06/29 00:06:02;;;;;;;13.93;7.18;;;17.70;99.90;;;;;;5092781;28;20120;-70
2021/06/29 00:08:28;;;;;;;14.55;7.25;;;17.70;99.90;;;;;;5092250;28;20036;-70
2021/06/29 00:10:54;;;;;;;12.52;6.63;;;17.70;99.90;;;;;;5090978;28;20040;-70
2021/06/29 00:13:21;;;;;;;11.63;6.85;;;17.70;99.90;;;;;;5092303;28;20036;-70
2021/06/29 00:15:47;;;;;;;12.18;6.47;;;17.70;99.90;;;;;;5092317;28;20040;-70
2021/06/29 00:18:13;;;;;;;11.80;6.78;;;17.70;99.90;;;;;;5091475;28;20456;-70
2021/06/29 00:20:39;;;;;;;12.38;6.30;;;17.70;99.90;;;;;;5091186;28;20123;-70
2021/06/29 00:23:06;;;;;;;12.35;6.57;;;17.70;99.90;;;;;;5091677;28;20044;-70
2021/06/29 00:25:32;;;;;;;13.27;6.95;;;17.70;99.90;;;;;;5092076;28;20105;-70
2021/06/29 00:27:58;;;;;;;11.30;6.63;;;17.70;99.90;;;;;;5090155;28;20074;-70
2021/06/29 00:30:24;;;;;;;14.10;6.45;;;17.60;99.90;;;;;;5091984;28;20035;-70
2021/06/29 00:32:49;;;;;;;13.98;7.00;;;17.60;99.90;;;;;;5092052;28;20042;-70
2021/06/29 00:35:15;;;;;;;15.90;7.50;;;17.60;99.90;;;;;;5091649;28;20078;-70
2021/06/29 00:37:43;;;;;;;15.95;6.95;;;17.60;99.90;;;;;;5091999;28;20035;-70
2021/06/29 00:40:11;;;;;;;15.65;6.50;;;17.50;99.90;;;;;;5091771;28;20090;-70
2021/06/29 00:42:37;;;;;;;17.65;6.55;;;17.50;99.90;;;;;;5091921;28;20048;-70
2021/06/29 00:45:05;;;;;;;15.90;7.15;;;17.50;99.90;;;;;;5090012;28;20055;-70
2021/06/29 00:47:30;;;;;;;14.15;6.13;;;17.50;99.90;;;;;;5091858;28;20036;-70
2021/06/29 00:49:56;;;;;;;15.00;6.60;;;17.50;99.90;;;;;;5091405;28;20047;-70
2021/06/29 00:52:22;;;;;;;15.48;7.05;;;17.50;99.90;;;;;;5091879;28;20548;-70
2021/06/29 00:54:50;;;;;;;15.05;6.95;;;17.50;99.90;;;;;;5072894;28;20474;-70
2021/06/29 00:57:15;;;;;;;13.90;6.72;;;17.50;99.90;;;;;;5091868;28;20093;-70
2021/06/29 00:59:42;;;;;;;15.35;6.72;;;17.50;99.90;;;;;;5089644;28;20036;-70
2021/06/29 01:02:09;;;;;;;17.95;7.03;;;17.40;99.90;;;;;;5091767;28;20040;-70
2021/06/29 01:04:37;;;;;;;13.50;6.15;;;17.50;99.90;;;;;;5091099;28;20094;-70
2021/06/29 01:07:04;;;;;;;16.55;6.63;;;17.40;99.90;;;;;;5091620;28;20522;-70
2021/06/29 01:09:31;;;;;;;16.58;6.88;;;17.40;99.90;;;;;;5090245;28;20071;-70
2021/06/29 01:11:57;;;;;;;16.55;6.55;;;17.40;99.90;;;;;;5071369;28;20072;-70
2021/06/29 01:14:22;;;;;;;16.13;7.03;;;17.40;99.90;;;;;;5082855;28;20441;-70
2021/06/29 01:16:49;;;;;;;15.18;6.82;;;17.40;99.90;;;;;;5072144;28;20028;-70
2021/06/29 01:19:19;;;;;;;13.05;6.82;;;17.40;99.90;;;;;;5091164;28;20039;-70
2021/06/29 01:21:48;;;;;;;14.95;6.78;;;17.40;99.90;;;;;;5069236;28;20032;-70
2021/06/29 01:24:18;;;;;;;17.17;7.60;;;17.40;99.90;;;;;;5090825;28;20044;-70
2021/06/29 01:26:59;;;;;;;13.98;7.07;;;17.40;99.90;;;;;;5091580;28;20127;-70
2021/06/29 01:29:45;;;;;;;16.70;7.47;;;17.30;99.90;;;;;;5091018;28;20040;-70
2021/06/29 01:32:16;;;;;;;12.02;7.68;;;17.40;99.90;;;;;;5091476;28;20064;-70
2021/06/29 01:34:42;;;;;;;13.20;7.80;;;17.40;99.90;;;;;;5089250;28;20392;-70
2021/06/29 01:37:08;;;;;;;14.25;7.53;;;17.30;99.90;;;;;;5091235;28;20449;-70
2021/06/29 01:39:34;;;;;;;15.45;7.45;;;17.30;99.90;;;;;;5090893;28;20724;-69
2021/06/29 01:42:00;;;;;;;17.20;8.25;;;17.30;99.90;;;;;;5073148;28;20481;-69
2021/06/29 01:44:31;;;;;;;14.50;7.93;;;17.30;99.90;;;;;;5090846;28;20038;-69
2021/06/29 01:46:57;;;;;;;15.80;8.75;;;17.30;99.90;;;;;;5091172;28;20044;-69
2021/06/29 01:49:27;;;;;;;19.67;9.18;;;17.30;99.90;;;;;;5087401;28;20111;-68
2021/06/29 01:51:54;;;;;;;16.63;9.48;;;17.30;99.90;;;;;;5090208;28;20130;-68
2021/06/29 01:54:21;;;;;;;15.50;8.13;;;17.30;99.90;;;;;;5090651;28;20064;-68
2021/06/29 01:56:47;;;;;;;12.63;8.55;;;17.30;99.90;;;;;;5090845;28;20047;-68
2021/06/29 01:59:16;;;;;;;18.88;9.57;;;17.20;99.90;;;;;;5090844;28;20032;-69
2021/06/29 02:01:43;;;;;;;16.58;8.35;;;17.20;99.90;;;;;;5091046;28;20378;-68
2021/06/29 02:04:09;;;;;;;15.38;9.30;;;17.20;99.90;;;;;;5090337;28;20123;-69
2021/06/29 02:06:34;;;;;;;17.70;9.20;;;17.20;99.90;;;;;;5089343;28;20126;-68
2021/06/29 02:09:00;;;;;;;15.07;8.30;;;17.20;99.90;;;;;;5090578;28;20043;-69
2021/06/29 02:11:25;;;;;;;14.68;8.30;;;17.10;99.90;;;;;;5073846;28;20037;-68
2021/06/29 02:13:51;;;;;;;16.27;8.30;;;17.10;99.90;;;;;;5081764;28;20473;-69
2021/06/29 02:16:17;;;;;;;17.73;9.20;;;17.10;99.90;;;;;;5090628;28;20040;-69
2021/06/29 02:18:42;;;;;;;14.18;8.00;;;17.10;99.90;;;;;;5090853;28;20143;-68
2021/06/29 02:21:08;;;;;;;14.25;8.13;;;17.10;99.90;;;;;;5071652;28;20629;-68
2021/06/29 02:23:34;;;;;;;13.85;8.02;;;17.10;99.90;;;;;;5083948;28;20086;-68
2021/06/29 02:26:00;;;;;;;15.13;7.93;;;17.00;99.90;;;;;;5090344;28;20044;-69
2021/06/29 02:28:26;;;;;;;14.73;8.10;;;17.10;99.90;;;;;;5090826;28;20093;-69
2021/06/29 02:30:52;;;;;;;17.63;8.02;;;17.00;99.90;;;;;;5090271;28;20098;-68
2021/06/29 02:33:18;;;;;;;16.33;8.40;;;17.10;99.90;;;;;;5090741;28;20036;-69
2021/06/29 02:35:44;;;;;;;15.70;7.07;;;17.10;99.90;;;;;;5072152;28;20470;-69
2021/06/29 02:38:10;;;;;;;10.25;6.93;;;17.00;99.90;;;;;;5090677;28;20433;-69
2021/06/29 02:40:36;;;;;;;14.95;7.40;;;17.00;99.90;;;;;;5089160;28;20113;-69
2021/06/29 02:43:02;;;;;;;13.73;6.65;;;17.00;99.90;;;;;;5094378;28;20070;-69
2021/06/29 02:45:28;;;;;;;15.35;7.35;;;17.00;99.90;;;;;;5093872;28;20036;-69
2021/06/29 02:47:57;;;;;;;14.75;7.00;;;16.90;99.90;;;;;;5094050;28;20044;-70
2021/06/29 02:50:22;;;;;;;15.90;7.75;;;16.90;99.90;;;;;;5086405;28;20684;-70
2021/06/29 02:52:48;;;;;;;18.02;7.43;;;16.90;99.90;;;;;;5073755;28;20111;-70
2021/06/29 02:55:14;;;;;;;16.00;7.80;;;16.90;99.90;;;;;;5079845;28;20135;-70
2021/06/29 02:57:41;;;;;;;13.63;6.88;;;17.00;99.90;;;;;;5081435;28;20120;-70
2021/06/29 03:00:10;;;;;;;11.27;6.50;;;16.90;99.90;;;;;;5078337;28;20035;-70
2021/06/29 03:02:35;;;;;;;12.52;7.15;;;17.00;99.90;;;;;;5075700;28;20036;-69
2021/06/29 03:05:03;;;;;;;14.15;7.88;;;16.90;99.90;;;;;;5093341;28;20111;-70
2021/06/29 03:07:29;;;;;;;10.55;6.47;;;17.00;99.90;;;;;;5093712;28;20044;-70
2021/06/29 03:09:55;;;;;;;13.25;6.88;;;17.00;99.90;;;;;;5091065;28;20067;-70
2021/06/29 03:12:20;;;;;;;13.30;7.13;;;17.10;99.90;;;;;;5088119;28;20470;-70
2021/06/29 03:14:49;;;;;;;10.65;7.05;;;17.10;99.90;;;;;;5055558;28;20045;-70
2021/06/29 03:17:15;;;;;;;15.10;7.55;;;17.10;99.90;;;;;;5073373;28;20436;-70
2021/06/29 03:19:41;;;;;;;16.75;7.50;;;17.10;99.90;;;;;;5073453;28;20429;-70
2021/06/29 03:22:07;;;;;;;15.43;6.88;;;17.10;99.90;;;;;;5075052;28;20040;-70
2021/06/29 03:24:33;;;;;;;17.83;7.97;;;17.10;99.90;;;;;;5089415;28;20063;-70
2021/06/29 03:26:58;;;;;;;29.83;8.77;;;17.10;99.90;;;;;;5092909;28;20488;-70
2021/06/29 03:29:24;;;;;;;18.60;7.25;;;17.10;99.90;;;;;;5070352;28;20051;-70
2021/06/29 03:31:50;;;;;;;19.65;8.27;;;17.10;99.90;;;;;;5088332;28;20074;-70
2021/06/29 03:34:15;;;;;;;14.68;7.40;;;17.20;99.90;;;;;;5092554;28;20676;-70
2021/06/29 03:36:42;;;;;;;19.65;7.70;;;17.20;99.90;;;;;;5072042;28;20028;-70
2021/06/29 03:39:08;;;;;;;21.65;8.57;;;17.30;99.90;;;;;;5073602;28;20072;-69
2021/06/29 03:41:34;;;;;;;17.58;7.68;;;17.30;99.90;;;;;;5091395;28;20072;-69
2021/06/29 03:44:00;;;;;;;25.63;8.65;;;17.30;99.90;;;;;;5091655;28;20051;-69
2021/06/29 03:46:26;;;;;;;21.10;8.00;;;17.30;99.90;;;;;;5089998;28;20040;-70
2021/06/29 03:48:52;;;;;;;22.52;8.52;;;17.30;99.90;;;;;;5073645;28;20130;-69
2021/06/29 03:51:17;;;;;;;17.70;8.52;;;17.30;99.90;;;;;;5087973;28;20036;-70
2021/06/29 03:53:43;;;;;;;17.08;7.90;;;17.40;99.90;;;;;;5070817;28;20039;-70
2021/06/29 03:56:23;;;;;;;20.73;8.40;;;17.40;99.90;;;;;;5085099;28;20048;-69
2021/06/29 03:58:50;;;;;;;20.33;7.70;;;17.40;99.90;;;;;;5092541;28;20040;-70
2021/06/29 04:01:16;;;;;;;29.40;9.52;;;17.40;99.90;;;;;;5092332;28;20040;-70
2021/06/29 04:03:41;;;;;;;23.48;9.43;;;17.50;99.90;;;;;;5087502;28;20033;-70
2021/06/29 04:06:07;;;;;;;29.60;9.35;;;17.50;99.90;;;;;;5061894;28;20032;-70
2021/06/29 04:08:33;;;;;;;24.02;8.90;;;17.50;99.90;;;;;;5091673;28;20036;-70
2021/06/29 04:10:59;;;;;;;19.05;8.02;;;17.50;99.90;;;;;;5091908;28;20085;-70
2021/06/29 04:13:24;;;;;;;25.15;9.35;;;17.50;99.90;;;;;;5091220;28;20115;-70
2021/06/29 04:15:51;;;;;;;29.63;9.52;;;17.50;99.90;;;;;;5091700;28;20040;-70
2021/06/29 04:18:16;;;;;;;24.63;8.00;;;17.60;99.90;;;;;;5092102;28;20481;-70
2021/06/29 04:20:42;;;;;;;34.15;10.23;;;17.60;99.90;;;;;;5091216;28;20044;-70
2021/06/29 04:23:08;;;;;;;31.63;9.95;;;17.60;99.90;;;;;;5090270;28;20035;-70
2021/06/29 04:25:33;;;;;;;25.58;9.93;;;17.60;99.90;;;;;;5084206;28;20405;-70
2021/06/29 04:27:59;;;;;;;28.23;8.88;;;17.60;99.90;;;;;;5073244;28;20118;-70
2021/06/29 04:30:25;;;;;;;22.10;9.50;;;17.60;99.90;;;;;;5073614;28;20040;-70
2021/06/29 04:32:50;;;;;;;29.02;10.90;;;17.60;99.90;;;;;;5091297;28;20044;-68
2021/06/29 04:35:16;;;;;;;25.95;10.98;;;17.60;99.90;;;;;;5073007;28;20413;-70
2021/06/29 04:37:42;;;;;;;33.83;11.07;;;17.60;99.90;;;;;;5104971;28;20500;-70
2021/06/29 04:40:08;;;;;;;28.83;10.52;;;17.60;99.90;;;;;;5112103;28;20393;-69
2021/06/29 04:42:35;;;;;;;35.78;12.15;;;17.60;99.90;;;;;;5093807;28;20036;-70
2021/06/29 04:45:01;;;;;;;27.60;10.63;;;17.70;99.90;;;;;;5091734;28;20473;-70
2021/06/29 04:47:27;;;;;;;30.33;10.20;;;17.70;99.90;;;;;;5090086;28;20078;-70
2021/06/29 04:49:55;;;;;;;28.58;10.02;;;17.70;99.90;;;;;;5087159;28;20036;-70
2021/06/29 04:52:21;;;;;;;33.00;11.38;;;17.80;99.90;;;;;;5073055;28;20040;-70
2021/06/29 04:54:47;;;;;;;28.45;10.18;;;17.80;99.90;;;;;;5071002;28;20083;-69
2021/06/29 04:57:12;;;;;;;36.42;12.07;;;17.80;99.90;;;;;;5064512;28;20443;-70
2021/06/29 04:59:38;;;;;;;26.83;9.77;;;17.80;99.90;;;;;;5071235;28;20040;-70
2021/06/29 05:02:04;;;;;;;32.67;11.05;;;17.90;99.90;;;;;;5090934;28;20542;-70
2021/06/29 05:04:30;;;;;;;37.10;12.02;;;17.90;99.90;;;;;;5088129;28;20123;-70
2021/06/29 05:06:55;;;;;;;31.88;12.48;;;17.90;99.90;;;;;;5090252;28;20517;-70
2021/06/29 05:09:21;;;;;;;34.30;11.43;;;17.70;99.90;;;;;;5090812;28;20032;-70
2021/06/29 05:11:47;;;;;;;37.38;12.45;;;17.80;99.90;;;;;;5091017;28;20063;-70
2021/06/29 05:14:12;;;;;;;39.10;12.38;;;17.80;99.90;;;;;;5076814;28;20369;-70
2021/06/29 05:16:38;;;;;;;25.90;10.98;;;17.80;99.90;;;;;;5086595;28;20523;-70
2021/06/29 05:19:04;;;;;;;28.02;12.30;;;17.90;99.90;;;;;;5073037;28;20089;-70
2021/06/29 05:21:30;;;;;;;33.83;11.43;;;18.00;99.90;;;;;;5089683;28;20040;-70
2021/06/29 05:23:56;;;;;;;32.50;12.52;;;18.00;99.90;;;;;;5073034;28;20500;-70
2021/06/29 05:26:22;;;;;;;38.78;13.07;;;18.00;99.90;;;;;;5086764;28;20085;-70
2021/06/29 05:28:47;;;;;;;31.73;12.95;;;18.00;99.90;;;;;;5072925;28;20040;-70
2021/06/29 05:31:13;;;;;;;40.58;12.02;;;18.10;99.90;;;;;;5090944;28;20036;-70
2021/06/29 05:33:39;;;;;;;34.72;13.02;;;18.20;99.90;;;;;;5091245;28;20028;-70
2021/06/29 05:36:05;;;;;;;28.02;11.15;;;18.30;99.90;;;;;;5090815;28;20517;-70
2021/06/29 05:38:31;;;;;;;39.10;12.75;;;18.30;99.90;;;;;;5089731;28;20039;-70
2021/06/29 05:40:56;;;;;;;35.45;11.77;;;18.40;99.90;;;;;;5072661;28;20450;-70
2021/06/29 05:43:22;;;;;;;36.75;11.55;;;18.40;99.90;;;;;;5091130;28;20518;-70
2021/06/29 05:45:48;;;;;;;31.60;11.70;;;18.40;99.90;;;;;;5090594;28;20465;-68
2021/06/29 05:48:17;;;;;;;28.90;11.75;;;18.50;99.90;;;;;;5090369;28;20040;-68
2021/06/29 05:50:43;;;;;;;53.47;12.73;;;18.50;99.90;;;;;;5078326;28;20036;-68
2021/06/29 05:53:08;;;;;;;41.05;12.10;;;18.60;99.90;;;;;;5089059;28;20040;-68
2021/06/29 05:55:34;;;;;;;43.17;13.25;;;18.60;99.90;;;;;;5090036;28;20273;-67
2021/06/29 05:58:00;;;;;;;40.88;13.20;;;18.50;99.90;;;;;;5089681;28;20496;-67
2021/06/29 06:00:25;;;;;;;41.40;12.15;;;18.50;99.90;;;;;;5090318;28;20032;-69
2021/06/29 06:02:51;;;;;;;35.08;11.45;;;18.60;99.90;;;;;;5072319;28;20040;-69
2021/06/29 06:05:17;;;;;;;39.25;12.63;;;18.60;99.90;;;;;;5071954;28;20044;-67
2021/06/29 06:07:42;;;;;;;45.83;13.48;;;18.60;99.90;;;;;;5063840;28;20035;-67
2021/06/29 06:10:08;;;;;;;46.78;13.43;;;18.60;99.90;;;;;;5075651;28;20063;-68
2021/06/29 06:12:34;;;;;;;50.15;13.25;;;18.60;99.90;;;;;;5088769;28;20040;-67
2021/06/29 06:15:00;;;;;;;50.08;13.85;;;18.50;99.90;;;;;;5089953;28;20473;-68
2021/06/29 06:17:27;;;;;;;45.55;14.60;;;18.50;99.90;;;;;;5080082;28;20037;-67
2021/06/29 06:19:53;;;;;;;43.97;13.65;;;18.50;99.90;;;;;;5073852;28;20043;-67
2021/06/29 06:22:20;;;;;;;55.95;14.07;;;18.60;99.90;;;;;;5056437;28;20052;-67
2021/06/29 06:24:46;;;;;;;47.00;14.07;;;18.40;99.90;;;;;;5073863;28;20089;-67
2021/06/29 06:27:14;;;;;;;40.10;13.82;;;18.50;99.90;;;;;;5086998;28;20040;-67
2021/06/29 06:29:40;;;;;;;47.05;15.50;;;18.60;99.90;;;;;;5092194;28;20059;-67
2021/06/29 06:32:06;;;;;;;50.42;14.52;;;18.60;99.90;;;;;;5094054;28;20040;-67
2021/06/29 06:34:32;;;;;;;48.55;15.80;;;18.60;99.90;;;;;;5092155;28;20040;-67
2021/06/29 06:36:58;;;;;;;53.30;17.17;;;18.70;99.90;;;;;;5093896;28;20534;-67
2021/06/29 06:39:24;;;;;;;47.45;16.63;;;18.80;99.90;;;;;;5093270;28;20424;-69
2021/06/29 06:41:50;;;;;;;54.83;18.48;;;18.90;99.90;;;;;;5092463;28;20040;-67
2021/06/29 06:44:16;;;;;;;49.97;15.60;;;19.10;99.90;;;;;;5087870;28;20499;-67
2021/06/29 06:46:42;;;;;;;49.92;14.35;;;19.00;99.90;;;;;;5091455;28;20032;-67
2021/06/29 06:49:08;;;;;;;54.22;16.13;;;19.10;99.90;;;;;;5093728;28;20032;-67
2021/06/29 06:51:34;;;;;;;56.80;16.73;;;19.30;99.90;;;;;;5081413;28;20037;-67
2021/06/29 06:53:59;;;;;;;49.38;15.25;;;19.30;99.90;;;;;;5082413;28;20044;-69
2021/06/29 06:56:25;;;;;;;52.15;15.82;;;19.40;99.90;;;;;;5073606;28;20460;-66
2021/06/29 06:58:51;;;;;;;49.42;14.93;;;19.50;99.90;;;;;;5091365;28;20040;-66
2021/06/29 07:01:17;;;;;;;42.38;15.77;;;19.40;99.90;;;;;;5073564;28;20045;-68
2021/06/29 07:03:44;;;;;;;43.47;15.65;;;19.50;99.90;;;;;;5073727;28;20028;-68
2021/06/29 07:06:12;;;;;;;44.63;16.33;;;19.50;99.90;;;;;;5075530;28;20097;-68
2021/06/29 07:08:37;;;;;;;40.88;16.20;;;19.50;99.90;;;;;;5084315;28;20033;-68
2021/06/29 07:11:03;;;;;;;47.58;15.90;;;19.60;99.90;;;;;;5084526;28;20044;-68
2021/06/29 07:13:29;;;;;;;44.10;15.85;;;19.60;99.90;;;;;;5061578;28;20172;-68
2021/06/29 07:15:55;;;;;;;47.10;16.48;;;19.70;99.90;;;;;;5074932;28;20078;-68
2021/06/29 07:18:21;;;;;;;37.83;13.82;;;19.70;99.90;;;;;;5091457;28;20373;-68
2021/06/29 07:20:47;;;;;;;36.25;15.25;;;19.80;99.90;;;;;;5093109;28;20066;-68
2021/06/29 07:23:13;;;;;;;33.13;14.23;;;19.90;99.90;;;;;;5093496;28;20040;-69
2021/06/29 07:25:40;;;;;;;32.63;13.98;;;19.90;99.90;;;;;;5092950;28;20036;-69
2021/06/29 07:28:07;;;;;;;35.55;14.55;;;19.90;99.90;;;;;;5085966;28;20049;-69
2021/06/29 07:30:33;;;;;;;31.48;14.55;;;20.00;99.90;;;;;;5092860;28;20455;-69
2021/06/29 07:32:59;;;;;;;28.50;13.82;;;20.00;99.90;;;;;;5072835;28;20044;-69
2021/06/29 07:35:27;;;;;;;29.92;13.98;;;20.00;99.90;;;;;;5091599;28;20457;-69
2021/06/29 07:37:53;;;;;;;28.08;13.20;;;20.00;99.90;;;;;;5092700;28;20028;-69
2021/06/29 07:40:19;;;;;;;32.05;14.65;;;19.90;99.90;;;;;;5077946;28;20033;-68
2021/06/29 07:42:44;;;;;;;31.75;13.77;;;20.00;99.90;;;;;;5077666;28;20071;-69
2021/06/29 07:45:11;;;;;;;33.10;14.40;;;20.00;99.90;;;;;;5085956;28;20062;-70
2021/06/29 07:47:38;;;;;;;33.65;14.45;;;20.10;99.90;;;;;;5091630;28;20112;-68
2021/06/29 07:50:06;;;;;;;27.67;13.15;;;20.20;99.90;;;;;;5089178;28;20367;-69
2021/06/29 07:52:31;;;;;;;29.60;14.38;;;20.20;99.90;;;;;;5087442;28;20071;-69
2021/06/29 07:54:57;;;;;;;33.35;15.95;;;20.20;99.90;;;;;;5074164;28;20481;-69
2021/06/29 07:57:23;;;;;;;33.88;15.02;;;20.30;99.90;;;;;;5090876;28;20047;-69
2021/06/29 07:59:49;;;;;;;38.20;16.45;;;20.40;99.90;;;;;;5089931;28;20058;-70
2021/06/29 08:02:14;;;;;;;31.10;15.32;;;20.20;99.90;;;;;;5073394;28;20046;-69
2021/06/29 08:04:41;;;;;;;34.30;15.52;;;20.20;99.90;;;;;;5091843;28;20118;-70
2021/06/29 08:07:07;;;;;;;32.75;16.45;;;20.30;99.90;;;;;;5088894;28;20071;-69
2021/06/29 08:09:32;;;;;;;32.53;14.40;;;19.90;99.90;;;;;;5106055;22;21120;-70
2021/06/29 08:11:58;;;;;;;29.65;15.82;;;20.10;99.90;;;;;;5111353;28;20131;-69
2021/06/29 08:14:24;;;;;;;29.50;16.02;;;19.90;99.90;;;;;;5109559;28;20106;-69
2021/06/29 08:16:49;;;;;;;26.55;13.75;;;19.80;99.90;;;;;;5105147;28;20103;-69
2021/06/29 08:19:16;;;;;;;23.20;14.55;;;19.90;99.90;;;;;;5106601;28;20035;-69
2021/06/29 08:21:42;;;;;;;27.02;13.93;;;20.00;99.90;;;;;;5098426;28;20194;-68
2021/06/29 08:24:08;;;;;;;28.20;15.50;;;20.20;99.90;;;;;;5088716;28;20043;-69
2021/06/29 08:26:34;;;;;;;22.13;14.68;;;20.40;99.90;;;;;;5111069;28;20036;-69
2021/06/29 08:29:00;;;;;;;26.05;15.48;;;20.50;99.90;;;;;;5110402;28;20401;-69
2021/06/29 08:31:25;;;;;;;28.77;16.35;;;20.60;99.90;;;;;;5112249;28;20043;-68
2021/06/29 08:33:54;;;;;;;29.98;16.27;;;20.60;99.90;;;;;;5110750;27;20039;-69
2021/06/29 08:36:22;;;;;;;30.98;15.55;;;20.30;99.90;;;;;;5086928;28;20036;-69
2021/06/29 08:38:49;;;;;;;33.47;17.75;;;20.50;99.90;;;;;;5106425;28;20036;-69
2021/06/29 08:41:16;;;;;;;27.20;16.13;;;20.60;99.90;;;;;;5098440;28;20115;-69
2021/06/29 08:43:41;;;;;;;23.45;15.35;;;20.70;99.90;;;;;;5074736;28;20051;-69
2021/06/29 08:46:09;;;;;;;26.88;14.90;;;20.70;99.90;;;;;;5109844;28;20043;-69
2021/06/29 08:48:35;;;;;;;25.67;13.80;;;20.80;99.90;;;;;;5100485;28;20040;-68
2021/06/29 08:51:05;;;;;;;24.15;14.23;;;21.00;99.90;;;;;;5093380;28;20085;-69
2021/06/29 08:53:31;;;;;;;26.17;15.05;;;21.00;99.90;;;;;;5090398;28;20108;-69
2021/06/29 08:55:58;;;;;;;23.02;13.80;;;20.80;99.90;;;;;;5092961;28;20088;-69
2021/06/29 08:58:25;;;;;;;30.25;15.32;;;21.00;99.90;;;;;;5112081;28;20058;-69
2021/06/29 09:00:52;;;;;;;24.30;14.38;;;21.10;99.90;;;;;;5111481;28;20028;-69
2021/06/29 09:03:18;;;;;;;38.97;17.20;;;21.20;99.90;;;;;;5109612;28;20046;-69
2021/06/29 09:05:49;;;;;;;26.75;15.93;;;21.10;99.90;;;;;;5111054;28;20032;-69
2021/06/29 09:08:17;;;;;;;28.90;14.90;;;21.20;99.90;;;;;;5109975;28;20088;-69
2021/06/29 09:11:19;;;;;;;23.20;13.98;;;21.20;99.90;;;;;;5107022;28;20112;-69
2021/06/29 09:14:06;;;;;;;26.75;15.35;;;21.20;99.90;;;;;;5110114;28;20047;-69
2021/06/29 09:16:31;;;;;;;30.92;17.40;;;21.20;99.90;;;;;;5072530;28;20040;-69
2021/06/29 09:18:57;;;;;;;29.23;17.00;;;21.20;99.90;;;;;;5104736;28;20099;-69
2021/06/29 09:21:24;;;;;;;32.83;16.75;;;21.00;99.90;;;;;;5111339;28;20081;-71
2021/06/29 09:23:51;;;;;;;36.53;18.00;;;21.10;99.90;;;;;;5110176;28;20036;-68
2021/06/29 09:26:23;;;;;;;25.27;14.75;;;21.10;99.90;;;;;;5110694;28;20042;-69
2021/06/29 09:28:58;;;;;;;25.42;16.38;;;21.20;99.90;;;;;;5092309;28;20039;-69
2021/06/29 09:31:27;;;;;;;32.50;16.15;;;21.20;99.90;;;;;;5107903;28;20423;-69
2021/06/29 09:33:58;;;;;;;31.85;18.30;;;21.30;99.90;;;;;;5106206;28;20062;-69
2021/06/29 09:36:27;;;;;;;32.40;18.83;;;21.20;99.90;;;;;;5090067;28;20052;-69
2021/06/29 09:38:53;;;;;;;30.60;17.73;;;21.20;99.90;;;;;;5109589;28;20039;-69
2021/06/29 09:41:22;;;;;;;30.38;17.20;;;21.20;99.90;;;;;;5110933;28;20039;-69
2021/06/29 09:43:50;;;;;;;26.10;17.45;;;21.30;99.90;;;;;;5108822;28;20092;-69
2021/06/29 09:46:18;;;;;;;34.50;16.27;;;21.30;99.90;;;;;;5091562;28;20119;-69
2021/06/29 09:48:54;;;;;;;25.67;14.77;;;21.30;99.90;;;;;;5109216;28;20043;-69
2021/06/29 09:51:24;;;;;;;28.90;15.63;;;21.30;99.90;;;;;;5109412;28;20113;-69
2021/06/29 09:53:52;;;;;;;30.42;16.65;;;21.40;99.90;;;;;;5113239;28;20111;-69
2021/06/29 09:56:23;;;;;;;35.13;17.30;;;21.40;99.90;;;;;;5112709;28;20094;-69
2021/06/29 09:58:51;;;;;;;37.50;19.50;;;21.50;99.20;;;;;;5114031;28;20032;-71
2021/06/29 10:01:19;;;;;;;35.30;18.35;;;21.30;99.90;;;;;;5102117;28;20032;-70
2021/06/29 10:03:46;;;;;;;31.27;18.70;;;21.30;99.90;;;;;;5094851;28;20051;-70
2021/06/29 10:06:15;;;;;;;34.85;19.48;;;21.20;99.90;;;;;;5115125;28;20507;-70
2021/06/29 10:08:43;;;;;;;32.10;19.17;;;21.20;99.90;;;;;;5114957;28;20111;-70
2021/06/29 10:11:13;;;;;;;34.33;19.67;;;21.10;99.90;;;;;;5114953;28;20411;-70
2021/06/29 10:13:46;;;;;;;29.58;17.60;;;21.10;99.90;;;;;;5114877;28;20085;-70
2021/06/29 10:16:13;;;;;;;35.60;19.27;;;21.10;99.90;;;;;;5096966;28;20128;-70
2021/06/29 10:18:48;;;;;;;27.63;17.60;;;21.10;99.90;;;;;;5112823;28;20043;-70
2021/06/29 10:21:18;;;;;;;28.15;18.05;;;21.20;99.90;;;;;;5114971;28;20040;-70
2021/06/29 10:23:45;;;;;;;46.03;18.92;;;21.20;99.90;;;;;;5111694;28;20047;-70
2021/06/29 10:26:12;;;;;;;32.20;18.02;;;21.20;99.90;;;;;;5114720;28;20131;-70
2021/06/29 10:28:38;;;;;;;25.77;17.80;;;21.10;99.90;;;;;;5115035;28;20039;-69
2021/06/29 10:31:05;;;;;;;33.20;18.40;;;21.00;99.90;;;;;;5113803;28;20055;-70
2021/06/29 10:33:33;;;;;;;32.53;18.17;;;21.00;99.90;;;;;;5095407;28;20032;-70
2021/06/29 10:36:01;;;;;;;30.15;17.75;;;21.00;99.90;;;;;;5115053;28;20044;-71
2021/06/29 10:38:27;;;;;;;23.42;17.02;;;21.00;99.90;;;;;;5114931;28;20059;-70
2021/06/29 10:40:54;;;;;;;27.80;17.23;;;20.90;99.90;;;;;;5107022;28;20035;-70
2021/06/29 10:43:20;;;;;;;28.48;18.17;;;20.70;99.90;;;;;;5100848;28;20039;-71
2021/06/29 10:45:48;;;;;;;32.17;19.13;;;20.80;99.90;;;;;;5114730;28;20114;-70
2021/06/29 10:48:27;;;;;;;32.13;18.58;;;20.80;99.90;;;;;;5114202;28;20082;-70
2021/06/29 10:50:55;;;;;;;30.55;17.30;;;20.80;99.90;;;;;;5103075;28;20039;-70
2021/06/29 10:53:42;;;;;;;31.10;18.70;;;20.90;99.90;;;;;;5111161;28;20101;-72
2021/06/29 10:56:16;;;;;;;31.42;19.17;;;20.90;99.90;;;;;;5112129;28;20042;-72
2021/06/29 10:58:48;;;;;;;28.23;17.25;;;20.90;99.90;;;;;;5107232;28;20043;-72
2021/06/29 11:01:24;;;;;;;;;;;20.90;99.90;;;;;;5114303;28;20556;-72
2021/06/29 11:03:51;;;;;;;31.20;18.55;;;20.70;99.90;;;;;;5113369;28;19919;-73
2021/06/29 11:06:49;;;;;;;29.90;18.63;;;20.80;99.90;;;;;;5112485;28;20039;-73
2021/06/29 11:09:19;;;;;;;28.27;18.35;;;20.90;99.90;;;;;;5064961;28;20392;-71
2021/06/29 11:12:19;;;;;;;28.23;17.20;;;21.00;99.90;;;;;;5112636;28;20048;-69
2021/06/29 11:14:49;;;;;;;22.75;16.52;;;21.20;99.90;;;;;;5093383;28;20548;-68
2021/06/29 11:17:17;;;;;;;23.73;16.48;;;21.40;99.90;;;;;;5099393;28;20039;-70
2021/06/29 11:20:05;;;;;;;26.73;19.17;;;21.50;99.90;;;;;;5114032;28;20031;-69
2021/06/29 11:22:49;;;;;;;28.85;18.63;;;21.40;99.90;;;;;;5114083;28;20036;-69
2021/06/29 11:25:29;;;;;;;27.38;18.35;;;21.20;99.90;;;;;;5095603;28;20491;-68
2021/06/29 11:28:05;;;;;;;25.45;16.60;;;20.90;99.90;;;;;;5114119;28;20069;-69
2021/06/29 11:31:14;;;;;;;30.73;18.40;;;21.10;99.90;;;;;;5111271;28;20032;-69
2021/06/29 11:33:40;;;;;;;31.02;20.08;;;21.20;99.90;;;;;;5101254;28;20471;-68
2021/06/29 11:36:24;;;;;;;33.72;19.75;;;21.30;99.90;;;;;;5102473;28;20040;-70
2021/06/29 11:38:52;;;;;;;35.40;20.13;;;21.40;99.90;;;;;;5093041;28;20036;-69
2021/06/29 11:41:37;;;;;;;27.92;18.52;;;21.50;99.90;;;;;;5093272;28;20477;-69
2021/06/29 11:44:05;;;;;;;32.80;19.92;;;21.70;99.90;;;;;;5098507;28;20036;-69
2021/06/29 11:47:00;;;;;;;32.05;19.00;;;21.90;99.80;;;;;;5092587;28;20478;-68
2021/06/29 11:49:30;;;;;;;31.52;20.58;;;22.10;99.90;;;;;;5084347;28;20048;-69
2021/06/29 11:52:01;;;;;;;31.02;19.98;;;22.10;99.60;;;;;;5089923;28;20394;-69
2021/06/29 11:54:32;;;;;;;28.83;18.80;;;22.10;99.30;;;;;;5113197;28;20066;-68
2021/06/29 11:57:12;;;;;;;29.70;18.42;;;22.10;99.00;;;;;;5113341;28;20837;-69
2021/06/29 11:59:38;;;;;;;28.85;18.27;;;22.20;99.70;;;;;;5098348;28;20066;-69
2021/06/29 12:02:06;;;;;;;34.13;20.33;;;22.20;98.40;;;;;;5111883;28;20090;-69
2021/06/29 12:04:33;;;;;;;32.50;19.90;;;22.20;99.90;;;;;;5112110;28;20465;-69
2021/06/29 12:07:06;;;;;;;28.92;18.92;;;22.10;99.00;;;;;;5111973;28;20499;-69
2021/06/29 12:09:34;;;;;;;29.05;20.02;;;22.00;99.90;;;;;;5101654;28;20107;-69
2021/06/29 12:12:19;;;;;;;32.92;18.33;;;22.00;99.00;;;;;;5104816;28;20070;-70
2021/06/29 12:14:45;;;;;;;30.85;18.70;;;21.90;99.50;;;;;;5106512;28;20043;-71
2021/06/29 12:17:11;;;;;;;28.70;18.23;;;22.00;99.60;;;;;;5104061;28;20048;-69
2021/06/29 12:19:39;;;;;;;34.78;19.63;;;22.00;98.90;;;;;;5103378;28;20118;-69
2021/06/29 12:22:05;;;;;;;30.48;19.70;;;22.00;98.80;;;;;;5100114;28;20504;-69
2021/06/29 12:24:30;;;;;;;30.60;19.08;;;22.00;98.60;;;;;;5100820;28;20071;-69
2021/06/29 12:26:56;;;;;;;29.60;19.33;;;22.00;98.60;;;;;;5102870;28;20040;-70
2021/06/29 12:29:36;;;;;;;30.90;20.42;;;22.00;98.80;;;;;;5094572;28;20495;-69
2021/06/29 12:32:24;;;;;;;31.08;21.02;;;22.00;99.40;;;;;;5106999;28;20043;-69
2021/06/29 12:35:10;;;;;;;24.20;17.88;;;22.00;99.00;;;;;;5109337;28;20043;-69